Time;durP1;ratioP1;P1;durP2;ratioP2;P2;SDS_P1;SDS_P2;PMS_P1;PMS_P2;Temp;Humidity;BMP_temperature;BMP_pressure;BME280_temperature;BME280_humidity;BME280_pressure;Samples;Min_cycle;Max_cycle;Signal;HPM_P1;HPM_P2
2022/06/07 00:01:35;;;;;;;;;;;17.20;77.70;;;;;;5113756;28;19912;-83
2022/06/07 00:04:01;;;;;;;;;;;17.20;77.60;;;;;;5112572;28;20459;-82
2022/06/07 00:06:28;;;;;;;;;;;17.10;77.80;;;;;;5108213;27;19999;-83
2022/06/07 00:08:53;;;;;;;;;;;17.10;78.60;;;;;;5150119;27;19916;-82
2022/06/07 00:11:19;;;;;;;;;;;17.10;78.10;;;;;;5127979;27;19985;-82
2022/06/07 00:13:45;;;;;;;;;;;17.10;78.00;;;;;;5113494;28;20387;-82
2022/06/07 00:16:11;;;;;;;;;;;17.00;78.10;;;;;;5113573;28;19939;-82
2022/06/07 00:18:37;;;;;;;;;;;17.00;78.10;;;;;;5122545;27;19911;-82
2022/06/07 00:21:03;;;;;;;;;;;17.00;78.40;;;;;;5165111;27;19934;-82
2022/06/07 00:23:30;;;;;;;;;;;16.90;78.40;;;;;;5122899;27;19954;-82
2022/06/07 00:25:55;;;;;;;;;;;16.90;78.60;;;;;;5112846;28;19971;-82
2022/06/07 00:28:21;;;;;;;;;;;16.90;78.60;;;;;;5109819;28;20022;-83
2022/06/07 00:30:48;;;;;;;;;;;16.90;78.50;;;;;;5110740;28;19908;-83
2022/06/07 00:33:14;;;;;;;;;;;16.80;78.60;;;;;;5111732;28;19919;-83
2022/06/07 00:35:39;;;;;;;;;;;16.80;78.70;;;;;;5115197;27;20292;-82
2022/06/07 00:38:05;;;;;;;;;;;16.80;79.00;;;;;;5113684;28;19908;-82
2022/06/07 00:40:31;;;;;;;;;;;16.80;78.90;;;;;;5118448;28;19993;-83
2022/06/07 00:42:56;;;;;;;;;;;16.80;78.80;;;;;;5112473;28;19982;-83
2022/06/07 00:45:22;;;;;;;;;;;16.70;79.00;;;;;;5129533;28;20383;-83
2022/06/07 00:47:48;;;;;;;;;;;16.70;79.10;;;;;;5133442;27;20306;-82
2022/06/07 00:50:14;;;;;;;;;;;16.70;79.00;;;;;;5121296;28;19911;-83
2022/06/07 00:52:39;;;;;;;;;;;16.70;78.80;;;;;;5125110;28;19912;-82
2022/06/07 00:55:06;;;;;;;;;;;16.60;79.40;;;;;;5113468;28;20424;-83
2022/06/07 00:57:31;;;;;;;;;;;16.60;79.20;;;;;;5113515;28;19915;-83
2022/06/07 00:59:57;;;;;;;;;;;16.60;79.20;;;;;;5124461;28;19912;-83
2022/06/07 01:02:23;;;;;;;;;;;16.60;79.60;;;;;;5114581;28;19919;-83
2022/06/07 01:04:48;;;;;;;;;;;16.50;79.40;;;;;;5113923;28;19915;-82
2022/06/07 01:12:43;;;;;;;;;;;16.50;80.00;;;;;;5102481;28;20267;-83
2022/06/07 01:15:09;;;;;;;;;;;16.40;79.60;;;;;;5128853;27;19911;-82
2022/06/07 01:17:34;;;;;;;;;;;16.40;79.90;;;;;;5113446;28;19976;-83
2022/06/07 01:20:00;;;;;;;;;;;16.40;80.10;;;;;;5112937;28;19965;-82
2022/06/07 01:22:26;;;;;;;;;;;16.40;80.00;;;;;;5125693;27;19935;-82
2022/06/07 01:24:53;;;;;;;;;;;16.40;80.30;;;;;;5119051;28;19915;-82
2022/06/07 01:27:19;;;;;;;;;;;16.30;80.00;;;;;;5111631;28;20086;-83
2022/06/07 01:29:45;;;;;;;;;;;16.30;81.10;;;;;;5105855;28;20411;-82
2022/06/07 01:32:11;;;;;;;;;;;16.30;80.90;;;;;;5109638;28;19911;-83
2022/06/07 01:34:41;;;;;;;;;;;16.30;81.30;;;;;;5118047;28;19915;-83
2022/06/07 01:37:07;;;;;;;;;;;16.20;80.80;;;;;;5119446;27;19971;-82
2022/06/07 01:42:17;;;;;;;;;;;16.20;80.70;;;;;;5131159;27;20600;-82
2022/06/07 01:44:44;;;;;;;;;;;16.20;80.40;;;;;;5137583;27;19951;-82
2022/06/07 01:47:11;;;;;;;;;;;16.20;80.50;;;;;;5130721;27;19911;-83
2022/06/07 01:49:37;;;;;;;;;;;16.10;81.00;;;;;;5096043;28;19920;-82
2022/06/07 01:52:03;;;;;;;;;;;16.10;81.50;;;;;;5123139;27;19925;-82
2022/06/07 01:54:29;;;;;;;;;;;16.10;81.70;;;;;;5115961;28;19972;-82
2022/06/07 01:56:54;;;;;;;;;;;16.10;81.90;;;;;;5115120;28;19916;-82
2022/06/07 01:59:20;;;;;;;;;;;16.00;82.20;;;;;;5116722;28;20383;-82
2022/06/07 02:01:46;;;;;;;;;;;16.00;81.40;;;;;;5117577;27;19911;-82
2022/06/07 02:04:12;;;;;;;;;;;16.00;81.90;;;;;;5138226;27;19917;-83
2022/06/07 02:06:38;;;;;;;;;;;16.00;81.70;;;;;;5112032;27;19908;-82
2022/06/07 02:09:04;;;;;;;;;;;16.00;81.90;;;;;;5123197;27;19935;-82
2022/06/07 02:11:29;;;;;;;;;;;16.00;82.20;;;;;;5115702;28;19964;-82
2022/06/07 02:13:55;;;;;;;;;;;16.00;82.40;;;;;;5114224;27;20481;-83
2022/06/07 02:16:21;;;;;;;;;;;16.00;82.50;;;;;;5115556;28;19920;-82
2022/06/07 02:18:47;;;;;;;;;;;15.90;82.60;;;;;;5126806;27;19912;-83
2022/06/07 02:21:14;;;;;;;;;;;15.90;82.70;;;;;;5117490;28;19908;-82
2022/06/07 02:23:40;;;;;;;;;;;15.90;82.30;;;;;;5128862;27;19944;-82
2022/06/07 02:26:22;;;;;;;;;;;15.90;82.10;;;;;;5121815;27;19912;-82
2022/06/07 02:28:51;;;;;;;;;;;15.90;81.40;;;;;;5111719;27;20364;-82
2022/06/07 02:31:16;;;;;;;;;;;15.90;81.70;;;;;;5116599;28;19918;-82
2022/06/07 02:33:42;;;;;;;;;;;15.90;81.30;;;;;;5122903;27;19919;-82
2022/06/07 02:36:09;;;;;;;;;;;15.90;82.20;;;;;;5119430;27;19908;-82
2022/06/07 02:38:35;;;;;;;;;;;15.90;82.40;;;;;;5114299;28;19947;-82
2022/06/07 02:41:02;;;;;;;;;;;15.90;82.40;;;;;;5123985;27;20337;-82
2022/06/07 02:43:27;;;;;;;;;;;15.80;82.60;;;;;;5120706;27;19923;-83
2022/06/07 02:45:53;;;;;;;;;;;15.80;82.80;;;;;;5123453;27;19912;-82
2022/06/07 02:48:18;;;;;;;;;;;15.80;82.40;;;;;;5113767;27;19964;-82
2022/06/07 02:50:44;;;;;;;;;;;15.80;81.90;;;;;;5127765;27;19908;-82
2022/06/07 02:53:10;;;;;;;;;;;15.80;82.00;;;;;;5123972;27;19933;-82
2022/06/07 02:55:36;;;;;;;;;;;15.80;82.10;;;;;;5116500;27;19916;-82
2022/06/07 02:58:01;;;;;;;;;;;15.80;82.20;;;;;;5128753;27;20379;-82
2022/06/07 03:00:27;;;;;;;;;;;15.70;81.90;;;;;;5116128;27;19912;-82
2022/06/07 03:02:52;;;;;;;;;;;15.70;82.60;;;;;;5115954;28;19912;-82
2022/06/07 03:05:18;;;;;;;;;;;15.70;82.30;;;;;;5117181;27;19915;-82
2022/06/07 03:07:44;;;;;;;;;;;15.70;83.50;;;;;;5114705;28;19982;-82
2022/06/07 03:10:10;;;;;;;;;;;15.70;82.80;;;;;;5112073;28;20443;-82
2022/06/07 03:12:36;;;;;;;;;;;15.70;82.40;;;;;;5103512;28;19966;-83
2022/06/07 03:15:02;;;;;;;;;;;15.70;82.00;;;;;;5107508;27;19947;-82
2022/06/07 03:17:28;;;;;;;;;;;15.70;82.50;;;;;;5135651;27;19939;-82
2022/06/07 03:19:53;;;;;;;;;;;15.70;82.60;;;;;;5121182;27;19918;-82
2022/06/07 03:22:19;;;;;;;;;;;15.70;82.00;;;;;;5122196;27;19915;-82
2022/06/07 03:24:45;;;;;;;;;;;15.60;82.20;;;;;;5113331;27;19915;-82
2022/06/07 03:27:11;;;;;;;;;;;15.60;81.90;;;;;;5119828;27;19912;-82
2022/06/07 03:29:37;;;;;;;;;;;15.60;82.50;;;;;;5115017;28;19927;-82
2022/06/07 03:32:03;;;;;;;;;;;15.60;82.60;;;;;;5132555;27;19911;-82
2022/06/07 03:34:29;;;;;;;;;;;15.60;82.50;;;;;;5135513;27;19935;-82
2022/06/07 03:36:54;;;;;;;;;;;15.60;82.40;;;;;;5123850;27;20602;-83
2022/06/07 03:39:20;;;;;;;;;;;15.60;82.40;;;;;;5113305;28;19912;-82
2022/06/07 03:41:45;;;;;;;;;;;15.60;82.20;;;;;;5125113;27;19912;-81
2022/06/07 03:44:12;;;;;;;;;;;15.60;81.80;;;;;;5114798;28;20421;-82
2022/06/07 03:46:40;;;;;;;;;;;15.50;82.10;;;;;;5123226;27;19915;-82
2022/06/07 03:49:06;;;;;;;;;;;15.50;82.40;;;;;;5148383;27;19943;-82
2022/06/07 03:51:31;;;;;;;;;;;15.50;82.40;;;;;;5120747;27;19938;-82
2022/06/07 03:53:57;;;;;;;;;;;15.50;82.70;;;;;;5130893;27;19919;-82
2022/06/07 03:56:23;;;;;;;;;;;15.50;82.50;;;;;;5123468;27;19964;-82
2022/06/07 03:58:49;;;;;;;;;;;15.50;82.70;;;;;;5129303;27;19946;-82
2022/06/07 04:01:16;;;;;;;;;;;15.50;82.60;;;;;;5127127;27;19907;-82
2022/06/07 04:03:44;;;;;;;;;;;15.50;82.60;;;;;;5134807;27;19915;-82
2022/06/07 04:06:19;;;;;;;;;;;15.50;82.80;;;;;;5131895;27;20324;-82
2022/06/07 04:08:44;;;;;;;;;;;15.50;82.20;;;;;;5098413;28;19916;-82
2022/06/07 04:11:11;;;;;;;;;;;15.50;82.30;;;;;;5114587;28;19996;-82
2022/06/07 04:13:37;;;;;;;;;;;15.50;82.00;;;;;;5125613;27;19926;-82
2022/06/07 04:16:10;;;;;;;;;;;15.40;82.20;;;;;;5114431;28;19907;-82
2022/06/07 04:18:35;;;;;;;;;;;15.50;82.20;;;;;;5111136;28;19943;-82
2022/06/07 04:21:02;;;;;;;;;;;15.50;82.50;;;;;;5112225;28;19908;-82
2022/06/07 04:23:27;;;;;;;;;;;15.50;82.30;;;;;;5124513;27;19911;-82
2022/06/07 04:25:53;;;;;;;;;;;15.50;81.90;;;;;;5112435;28;20370;-82
2022/06/07 04:28:18;;;;;;;;;;;15.50;82.20;;;;;;5123189;28;20009;-82
2022/06/07 04:30:45;;;;;;;;;;;15.40;81.90;;;;;;5134333;28;19916;-82
2022/06/07 04:33:11;;;;;;;;;;;15.50;82.10;;;;;;5132655;27;19915;-81
2022/06/07 04:35:36;;;;;;;;;;;15.50;81.70;;;;;;5134867;27;19916;-82
2022/06/07 04:38:02;;;;;;;;;;;15.40;81.90;;;;;;5121372;28;19929;-82
2022/06/07 04:40:28;;;;;;;;;;;15.50;81.90;;;;;;5133525;27;19911;-82
2022/06/07 04:42:53;;;;;;;;;;;15.40;81.80;;;;;;5111217;28;20045;-82
2022/06/07 04:45:19;;;;;;;;;;;15.50;81.70;;;;;;5117066;28;19922;-82
2022/06/07 04:47:45;;;;;;;;;;;15.50;81.60;;;;;;5101180;28;19912;-82
2022/06/07 04:50:12;;;;;;;;;;;15.40;81.40;;;;;;5131759;28;20390;-82
2022/06/07 04:52:38;;;;;;;;;;;15.50;81.70;;;;;;5129795;27;19912;-82
2022/06/07 04:55:04;;;;;;;;;;;15.50;81.60;;;;;;5112070;28;20366;-82
2022/06/07 04:57:30;;;;;;;;;;;15.40;81.60;;;;;;5127055;28;20006;-82
2022/06/07 04:59:55;;;;;;;;;;;15.50;81.40;;;;;;5104657;28;19948;-82
2022/06/07 05:02:21;;;;;;;;;;;15.50;81.50;;;;;;5093613;28;19919;-82
2022/06/07 05:04:47;;;;;;;;;;;15.50;81.20;;;;;;5110074;27;19939;-82
2022/06/07 05:07:13;;;;;;;;;;;15.50;81.00;;;;;;5116101;27;19908;-81
2022/06/07 05:09:38;;;;;;;;;;;15.50;81.20;;;;;;5157555;27;19998;-82
2022/06/07 05:12:04;;;;;;;;;;;15.50;81.20;;;;;;5128077;27;20507;-82
2022/06/07 05:14:30;;;;;;;;;;;15.60;81.20;;;;;;5118214;27;19919;-82
2022/06/07 05:16:57;;;;;;;;;;;15.60;80.90;;;;;;5116481;28;19947;-82
2022/06/07 05:19:23;;;;;;;;;;;15.60;80.90;;;;;;5117852;27;19911;-82
2022/06/07 05:21:49;;;;;;;;;;;15.60;80.90;;;;;;5118231;28;19916;-82
2022/06/07 05:24:15;;;;;;;;;;;15.70;80.90;;;;;;5117224;27;19920;-82
2022/06/07 05:26:48;;;;;;;;;;;15.60;80.80;;;;;;5136677;27;19907;-82
2022/06/07 05:29:15;;;;;;;;;;;15.70;80.90;;;;;;5117213;28;19927;-82
2022/06/07 05:31:41;;;;;;;;;;;15.70;80.80;;;;;;5116661;27;19916;-82
2022/06/07 05:34:07;;;;;;;;;;;15.70;80.80;;;;;;5117686;28;19918;-82
2022/06/07 05:36:33;;;;;;;;;;;15.70;80.70;;;;;;5130643;27;19957;-82
2022/06/07 05:38:58;;;;;;;;;;;15.70;80.70;;;;;;5125989;27;19911;-82
2022/06/07 05:41:25;;;;;;;;;;;15.70;80.50;;;;;;5117604;27;19911;-82
2022/06/07 05:43:51;;;;;;;;;;;15.80;80.50;;;;;;5132334;27;20005;-82
2022/06/07 05:46:17;;;;;;;;;;;15.80;80.30;;;;;;5132379;27;20537;-81
2022/06/07 05:48:42;;;;;;;;;;;15.80;80.30;;;;;;5137747;27;19915;-82
2022/06/07 05:51:08;;;;;;;;;;;15.80;80.30;;;;;;5133937;27;20015;-82
2022/06/07 05:53:33;;;;;;;;;;;15.90;80.40;;;;;;5122134;27;20258;-82
2022/06/07 05:56:06;;;;;;;;;;;15.90;80.20;;;;;;5116812;27;20028;-82
2022/06/07 05:58:32;;;;;;;;;;;15.90;80.10;;;;;;5116660;28;19930;-82
2022/06/07 06:00:57;;;;;;;;;;;15.90;80.10;;;;;;5114887;27;19912;-82
2022/06/07 06:03:23;;;;;;;;;;;15.90;79.90;;;;;;5116004;28;19916;-82
2022/06/07 06:05:48;;;;;;;;;;;16.00;79.80;;;;;;5115914;28;20276;-82
2022/06/07 06:11:06;;;;;;;;;;;16.00;79.70;;;;;;5117136;28;19954;-82
2022/06/07 06:13:32;;;;;;;;;;;16.10;79.60;;;;;;5116311;27;19919;-82
2022/06/07 06:16:02;;;;;;;;;;;16.10;79.70;;;;;;5116469;28;20352;-81
2022/06/07 06:18:27;;;;;;;;;;;16.10;79.60;;;;;;5115583;27;19924;-82
2022/06/07 06:20:53;;;;;;;;;;;16.10;79.60;;;;;;5115347;28;20338;-82
2022/06/07 06:23:18;;;;;;;;;;;16.10;79.40;;;;;;5115787;27;19918;-82
2022/06/07 06:25:44;;;;;;;;;;;16.20;79.40;;;;;;5113005;28;19970;-82
2022/06/07 06:28:09;;;;;;;;;;;16.20;79.30;;;;;;5124845;27;20364;-82
2022/06/07 06:30:35;;;;;;;;;;;16.20;79.30;;;;;;5129376;27;19941;-82
2022/06/07 06:33:00;;;;;;;;;;;16.20;79.20;;;;;;5135114;27;19960;-82
2022/06/07 06:35:26;;;;;;;;;;;16.20;79.20;;;;;;5136666;27;19934;-82
2022/06/07 06:37:52;;;;;;;;;;;16.20;79.20;;;;;;5135429;27;19942;-83
2022/06/07 06:40:18;;;;;;;;;;;16.20;79.20;;;;;;5124241;27;20014;-82
2022/06/07 06:42:43;;;;;;;;;;;16.20;79.30;;;;;;5121254;27;19992;-83
2022/06/07 06:45:09;;;;;;;;;;;16.20;79.30;;;;;;5116323;28;19916;-82
2022/06/07 06:47:35;;;;;;;;;;;16.20;79.30;;;;;;5116187;27;19918;-82
2022/06/07 06:50:00;;;;;;;;;;;16.20;79.30;;;;;;5115693;28;19915;-83
2022/06/07 06:52:26;;;;;;;;;;;16.20;79.30;;;;;;5116690;28;19938;-83
2022/06/07 06:54:51;;;;;;;;;;;16.20;79.20;;;;;;5112983;28;19923;-82
2022/06/07 06:57:18;;;;;;;;;;;16.20;79.20;;;;;;5102784;28;19916;-82
2022/06/07 06:59:44;;;;;;;;;;;16.20;79.20;;;;;;5112438;28;19908;-82
2022/06/07 07:02:11;;;;;;;;;;;16.20;79.10;;;;;;5111624;28;20409;-81
2022/06/07 07:04:37;;;;;;;;;;;16.20;79.10;;;;;;5121161;27;19946;-82
2022/06/07 07:07:03;;;;;;;;;;;16.20;79.00;;;;;;5126662;27;19908;-82
2022/06/07 07:09:28;;;;;;;;;;;16.30;79.00;;;;;;5124508;27;19930;-82
2022/06/07 07:11:54;;;;;;;;;;;16.20;78.90;;;;;;5117532;27;19912;-82
2022/06/07 07:14:19;;;;;;;;;;;16.30;78.90;;;;;;5114747;27;20017;-81
2022/06/07 07:16:47;;;;;;;;;;;16.20;78.70;;;;;;5115745;28;19914;-82
2022/06/07 07:19:13;;;;;;;;;;;16.20;78.90;;;;;;5113706;28;19923;-82
2022/06/07 07:21:40;;;;;;;;;;;16.20;78.70;;;;;;5115424;28;20521;-82
2022/06/07 07:24:08;;;;;;;;;;;16.30;78.50;;;;;;5120773;27;20427;-82
2022/06/07 07:26:35;;;;;;;;;;;16.30;78.60;;;;;;5115654;28;19908;-82
2022/06/07 07:29:02;;;;;;;;;;;16.30;78.60;;;;;;5113100;28;19927;-84
2022/06/07 07:31:30;;;;;;;;;;;16.30;78.40;;;;;;5135607;27;19922;-83
2022/06/07 07:33:56;;;;;;;;;;;16.30;78.40;;;;;;5169447;27;20022;-83
2022/06/07 07:36:22;;;;;;;;;;;16.40;78.40;;;;;;5116153;27;19963;-82
2022/06/07 07:38:47;;;;;;;;;;;16.40;78.10;;;;;;5115906;28;19912;-82
2022/06/07 07:41:24;;;;;;;;;;;16.40;77.90;;;;;;5125731;27;20013;-83
2022/06/07 07:43:50;;;;;;;;;;;16.40;78.00;;;;;;5115047;28;19923;-82
2022/06/07 07:46:16;;;;;;;;;;;16.40;77.90;;;;;;5120690;27;19903;-82
2022/06/07 07:48:42;;;;;;;;;;;16.40;77.90;;;;;;5118361;27;20484;-82
2022/06/07 07:51:10;;;;;;;;;;;16.40;77.70;;;;;;5124542;27;19947;-82
2022/06/07 07:53:35;;;;;;;;;;;16.50;77.70;;;;;;5112688;28;19919;-82
2022/06/07 07:56:01;;;;;;;;;;;16.50;77.70;;;;;;5113670;27;20063;-83
2022/06/07 07:58:26;;;;;;;;;;;16.50;77.50;;;;;;5124346;27;19916;-82
2022/06/07 08:00:52;;;;;;;;;;;16.60;77.30;;;;;;5100764;28;20425;-83
2022/06/07 08:03:19;;;;;;;;;;;16.60;77.10;;;;;;5116000;28;19918;-83
2022/06/07 08:05:44;;;;;;;;;;;16.60;77.10;;;;;;5114464;27;19919;-83
2022/06/07 08:08:10;;;;;;;;;;;16.60;77.10;;;;;;5096753;28;19919;-83
2022/06/07 08:10:36;;;;;;;;;;;16.60;76.90;;;;;;5094305;28;19908;-83
2022/06/07 08:13:02;;;;;;;;;;;16.70;76.70;;;;;;5113817;28;19912;-83
2022/06/07 08:15:29;;;;;;;;;;;16.70;76.70;;;;;;5115465;28;19922;-83
2022/06/07 08:17:55;;;;;;;;;;;16.70;76.70;;;;;;5114232;28;19912;-83
2022/06/07 08:20:21;;;;;;;;;;;16.80;76.70;;;;;;5115814;28;20309;-82
2022/06/07 08:22:47;;;;;;;;;;;16.80;76.60;;;;;;5113021;28;19954;-83
2022/06/07 08:25:13;;;;;;;;;;;16.80;76.70;;;;;;5123434;27;19908;-83
2022/06/07 08:27:39;;;;;;;;;;;16.80;76.30;;;;;;5119634;28;19958;-82
2022/06/07 08:30:05;;;;;;;;;;;16.90;76.30;;;;;;5101357;28;19923;-83
2022/06/07 08:32:31;;;;;;;;;;;16.90;76.30;;;;;;5104186;28;20006;-83
2022/06/07 08:37:42;;;;;;;;;;;17.00;76.20;;;;;;5124733;28;19961;-83
2022/06/07 08:40:10;;;;;;;;;;;17.00;76.40;;;;;;5118906;28;19911;-82
2022/06/07 08:42:38;;;;;;;;;;;17.00;76.40;;;;;;5129362;27;19919;-83
2022/06/07 08:45:05;;;;;;;;;;;17.00;76.40;;;;;;5131919;27;20030;-82
2022/06/07 08:47:51;;;;;;;;;;;17.00;76.40;;;;;;5110070;27;20620;-82
2022/06/07 08:50:28;;;;;;;;;;;17.00;76.20;;;;;;5139688;27;19915;-81
2022/06/07 08:52:59;;;;;;;;;;;17.10;76.10;;;;;;5135636;27;19937;-82
2022/06/07 08:55:27;;;;;;;;;;;17.20;76.00;;;;;;5121514;28;19983;-82
2022/06/07 08:58:13;;;;;;;;;;;17.20;75.90;;;;;;5120049;27;19912;-82
2022/06/07 09:00:40;;;;;;;;;;;17.30;75.70;;;;;;5114847;27;19968;-82
2022/06/07 09:03:05;;;;;;;;;;;17.30;75.60;;;;;;5136978;27;19907;-82
2022/06/07 09:05:31;;;;;;;;;;;17.30;75.60;;;;;;5140401;27;19917;-81
2022/06/07 09:07:58;;;;;;;;;;;17.40;75.40;;;;;;5171831;27;19915;-82
2022/06/07 09:13:16;;;;;;;;;;;17.60;75.30;;;;;;5122670;27;19965;-82
2022/06/07 09:15:45;;;;;;;;;;;17.70;75.80;;;;;;5124793;27;20021;-82
2022/06/07 09:18:13;;;;;;;;;;;17.70;74.80;;;;;;5120336;28;19916;-83
2022/06/07 09:20:58;;;;;;;;;;;17.80;74.80;;;;;;5127340;27;19923;-83
2022/06/07 09:23:29;;;;;;;;;;;17.90;74.60;;;;;;5121601;28;20363;-82
2022/06/07 09:25:56;;;;;;;;;;;17.90;74.50;;;;;;5118296;28;19948;-82
2022/06/07 09:28:23;;;;;;;;;;;18.00;74.20;;;;;;5130723;27;19923;-82
2022/06/07 09:30:56;;;;;;;;;;;18.10;74.10;;;;;;5107384;28;20277;-82
2022/06/07 09:33:28;;;;;;;;;;;18.10;74.10;;;;;;5103407;28;20372;-82
2022/06/07 09:36:00;;;;;;;;;;;18.20;73.80;;;;;;5122838;28;19922;-82
2022/06/07 09:38:31;;;;;;;;;;;18.40;73.70;;;;;;5112774;28;19911;-83
2022/06/07 09:41:03;;;;;;;;;;;18.40;73.60;;;;;;5118108;27;19912;-83
2022/06/07 09:43:37;;;;;;;;;;;18.40;73.50;;;;;;5114501;28;19946;-81
2022/06/07 09:46:07;;;;;;;;;;;18.40;73.80;;;;;;5108679;28;19912;-80
2022/06/07 09:48:38;;;;;;;;;;;18.40;73.90;;;;;;5130527;27;19908;-83
2022/06/07 09:51:06;;;;;;;;;;;18.50;74.00;;;;;;5121483;27;19920;-81
2022/06/07 09:53:36;;;;;;;;;;;18.50;73.90;;;;;;5116103;28;19922;-81
2022/06/07 09:56:20;;;;;;;;;;;18.50;73.90;;;;;;5129484;27;20007;-83
2022/06/07 09:58:45;;;;;;;;;;;18.60;74.10;;;;;;5138410;27;19914;-82
2022/06/07 10:01:24;;;;;;;;;;;18.70;73.70;;;;;;5128660;27;20105;-82
2022/06/07 10:03:53;;;;;;;;;;;18.70;73.80;;;;;;5139051;27;19911;-82
2022/06/07 10:06:27;;;;;;;;;;;18.80;73.30;;;;;;5157698;27;19912;-82
2022/06/07 10:08:58;;;;;;;;;;;19.00;73.20;;;;;;5118612;28;20332;-82
2022/06/07 10:11:30;;;;;;;;;;;18.90;73.10;;;;;;5117108;28;19960;-81
2022/06/07 10:14:19;;;;;;;;;;;19.00;73.30;;;;;;5117914;28;19926;-82
2022/06/07 10:16:54;;;;;;;;;;;19.00;73.20;;;;;;5113333;27;19987;-81
2022/06/07 10:19:35;;;;;;;;;;;19.10;73.20;;;;;;5122241;28;19923;-82
2022/06/07 10:22:15;;;;;;;;;;;19.10;73.20;;;;;;5133283;27;20330;-82
2022/06/07 10:24:44;;;;;;;;;;;19.10;73.30;;;;;;5182419;27;19919;-82
2022/06/07 10:27:17;;;;;;;;;;;19.20;73.10;;;;;;5129136;27;19985;-81
2022/06/07 10:29:49;;;;;;;;;;;19.20;73.00;;;;;;5118550;28;19939;-82
2022/06/07 10:32:39;;;;;;;;;;;19.30;73.10;;;;;;5117080;28;19912;-81
2022/06/07 10:35:05;;;;;;;;;;;19.30;73.10;;;;;;5119846;28;19911;-82
2022/06/07 10:37:34;;;;;;;;;;;19.40;72.90;;;;;;5118267;28;19912;-82
2022/06/07 10:40:02;;;;;;;;;;;19.40;72.90;;;;;;5121800;28;19969;-82
2022/06/07 10:42:37;;;;;;;;;;;19.50;73.50;;;;;;5117183;28;19994;-82
2022/06/07 10:45:11;;;;;;;;;;;19.60;72.80;;;;;;5096268;28;19908;-82
2022/06/07 10:47:51;;;;;;;;;;;19.70;72.80;;;;;;5120635;27;19911;-82
2022/06/07 10:50:23;;;;;;;;;;;19.70;72.60;;;;;;5122930;27;19922;-82
2022/06/07 10:53:10;;;;;;;;;;;19.80;72.40;;;;;;5120720;27;19911;-82
2022/06/07 10:55:39;;;;;;;;;;;19.90;72.40;;;;;;5136755;27;19939;-82
2022/06/07 10:58:10;;;;;;;;;;;20.00;72.10;;;;;;5130425;27;19919;-83
2022/06/07 11:00:45;;;;;;;;;;;20.00;72.00;;;;;;5129398;27;19912;-82
2022/06/07 11:03:11;;;;;;;;;;;20.10;71.90;;;;;;5114240;27;19967;-82
2022/06/07 11:11:08;;;;;;;;;;;20.50;71.30;;;;;;5113810;28;19919;-83
2022/06/07 11:13:43;;;;;;;;;;;20.60;71.20;;;;;;5119939;27;19937;-81
2022/06/07 11:16:14;;;;;;;;;;;20.60;71.10;;;;;;5116258;27;19939;-81
2022/06/07 11:18:41;;;;;;;;;;;20.80;71.00;;;;;;5115498;27;20010;-82
2022/06/07 11:21:06;;;;;;;;;;;20.90;70.90;;;;;;5116946;27;19908;-82
2022/06/07 11:23:33;;;;;;;;;;;20.90;70.80;;;;;;5112810;27;19961;-82
2022/06/07 11:26:02;;;;;;;;;;;21.00;70.90;;;;;;5111896;28;20360;-82
2022/06/07 11:28:30;;;;;;;;;;;21.00;70.80;;;;;;5114042;27;20011;-82
2022/06/07 11:31:00;;;;;;;;;;;20.90;70.80;;;;;;5155672;27;19919;-82
2022/06/07 11:33:28;;;;;;;;;;;21.20;70.80;;;;;;5109707;28;19962;-82
2022/06/07 11:36:06;;;;;;;;;;;21.20;70.60;;;;;;5117759;27;19916;-82
2022/06/07 11:38:33;;;;;;;;;;;21.20;70.40;;;;;;5103087;28;19986;-82
2022/06/07 11:41:37;;;;;;;;;;;21.10;70.50;;;;;;5110548;28;19939;-82
2022/06/07 11:44:12;;;;;;;;;;;21.20;70.50;;;;;;5110313;27;20413;-82
2022/06/07 11:46:39;;;;;;;;;;;21.30;70.40;;;;;;5128676;27;20296;-82
2022/06/07 11:51:57;;;;;;;;;;;21.50;70.20;;;;;;5112681;28;20023;-82
2022/06/07 11:54:38;;;;;;;;;;;21.40;70.20;;;;;;5123631;27;19934;-82
2022/06/07 11:57:17;;;;;;;;;;;21.40;70.20;;;;;;5131575;27;20617;-82
2022/06/07 11:59:50;;;;;;;;;;;21.40;70.60;;;;;;5129213;27;20569;-82
2022/06/07 12:02:16;;;;;;;;;;;21.50;70.40;;;;;;5111983;28;19918;-83
2022/06/07 12:04:41;;;;;;;;;;;21.50;70.40;;;;;;5109327;27;20292;-82
2022/06/07 12:07:16;;;;;;;;;;;21.50;70.00;;;;;;5132353;27;19923;-82
2022/06/07 12:09:45;;;;;;;;;;;21.60;69.90;;;;;;5112112;27;19922;-81
2022/06/07 12:12:22;;;;;;;;;;;21.60;70.20;;;;;;5129742;27;19907;-81
2022/06/07 12:14:50;;;;;;;;;;;21.60;70.00;;;;;;5132922;27;20357;-80
2022/06/07 12:17:21;;;;;;;;;;;21.60;70.10;;;;;;5110316;28;19914;-81
2022/06/07 12:19:47;;;;;;;;;;;21.60;70.10;;;;;;5114216;27;19938;-82
2022/06/07 12:22:14;;;;;;;;;;;21.60;70.20;;;;;;5120070;27;19911;-82
2022/06/07 12:24:42;;;;;;;;;;;21.60;70.00;;;;;;5151486;27;20310;-81
2022/06/07 12:27:26;;;;;;;;;;;21.60;70.20;;;;;;5111964;28;19961;-81
2022/06/07 12:29:54;;;;;;;;;;;21.60;69.50;;;;;;5132574;28;19923;-81
2022/06/07 12:32:34;;;;;;;;;;;21.60;69.70;;;;;;5116386;27;19916;-81
2022/06/07 12:35:03;;;;;;;;;;;21.60;70.00;;;;;;5109917;28;19984;-82
2022/06/07 12:37:31;;;;;;;;;;;21.60;69.90;;;;;;5110561;28;19998;-82
2022/06/07 12:39:57;;;;;;;;;;;21.60;69.90;;;;;;5119929;28;19907;-82
2022/06/07 12:42:23;;;;;;;;;;;21.50;70.30;;;;;;5116075;28;20372;-83
2022/06/07 12:44:53;;;;;;;;;;;21.50;70.40;;;;;;5113004;28;19947;-81
2022/06/07 12:47:25;;;;;;;;;;;21.50;70.20;;;;;;5112946;28;19922;-82
2022/06/07 12:49:50;;;;;;;;;;;21.50;69.90;;;;;;5114231;28;20002;-82
2022/06/07 12:52:18;;;;;;;;;;;21.50;69.60;;;;;;5110368;28;20010;-82
2022/06/07 12:54:51;;;;;;;;;;;21.50;70.50;;;;;;5116004;28;19965;-82
2022/06/07 12:57:24;;;;;;;;;;;21.40;70.20;;;;;;5121190;27;19912;-82
2022/06/07 13:00:00;;;;;;;;;;;21.40;70.40;;;;;;5112728;28;19944;-82
2022/06/07 13:02:40;;;;;;;;;;;21.40;70.50;;;;;;5115162;28;20456;-82
2022/06/07 13:05:10;;;;;;;;;;;21.30;70.80;;;;;;5130396;27;19926;-82
2022/06/07 13:07:47;;;;;;;;;;;21.40;71.00;;;;;;5150983;27;20073;-83
2022/06/07 13:10:15;;;;;;;;;;;21.30;70.90;;;;;;5128122;28;20267;-83
2022/06/07 13:12:43;;;;;;;;;;;21.30;71.00;;;;;;5129833;27;19990;-82
2022/06/07 13:15:20;;;;;;;;;;;21.30;70.90;;;;;;5115502;28;19912;-82
2022/06/07 13:17:54;;;;;;;;;;;21.30;71.00;;;;;;5104422;28;19961;-83
2022/06/07 13:20:25;;;;;;;;;;;21.10;71.10;;;;;;5117466;28;19918;-82
2022/06/07 13:22:51;;;;;;;;;;;21.10;71.30;;;;;;5128521;28;19958;-82
2022/06/07 13:25:17;;;;;;;;;;;21.00;71.80;;;;;;5122285;28;20353;-81
2022/06/07 13:27:43;;;;;;;;;;;21.00;72.00;;;;;;5113269;28;19994;-82
2022/06/07 13:30:14;;;;;;;;;;;20.90;72.30;;;;;;5133458;27;20007;-83
2022/06/07 13:32:39;;;;;;;;;;;20.80;72.30;;;;;;5119276;27;20003;-82
2022/06/07 13:35:22;;;;;;;;;;;20.70;72.70;;;;;;5117176;27;20022;-82
2022/06/07 13:38:03;;;;;;;;;;;20.70;72.90;;;;;;5117620;27;19914;-82
2022/06/07 13:40:31;;;;;;;;;;;20.70;73.10;;;;;;5123391;27;19908;-81
2022/06/07 13:43:13;;;;;;;;;;;20.70;73.10;;;;;;5113657;28;19959;-80
2022/06/07 13:45:43;;;;;;;;;;;20.70;73.30;;;;;;5123770;27;19911;-81
2022/06/07 13:48:13;;;;;;;;;;;20.70;73.40;;;;;;5127916;27;19908;-81
2022/06/07 13:54:06;;;;;;;;;;;20.60;73.80;;;;;;5109315;27;20276;-79
2022/06/07 13:56:31;;;;;;;;;;;20.60;74.00;;;;;;5092380;28;20693;-80
2022/06/07 13:58:58;;;;;;;;;;;20.60;74.10;;;;;;5109789;27;19919;-80
2022/06/07 14:01:29;;;;;;;;;;;20.60;74.30;;;;;;5111311;27;19912;-80
2022/06/07 14:03:56;;;;;;;;;;;20.60;74.60;;;;;;5108704;27;19911;-79
2022/06/07 14:06:30;;;;;;;;;;;20.60;74.70;;;;;;5110995;27;19916;-78
2022/06/07 14:08:57;;;;;;;;;;;20.50;75.00;;;;;;5100727;28;19912;-78
2022/06/07 14:11:22;;;;;;;;;;;20.50;75.10;;;;;;5105647;28;20027;-79
2022/06/07 14:13:48;;;;;;;;;;;20.50;75.20;;;;;;5119271;27;19998;-78
2022/06/07 14:16:25;;;;;;;;;;;20.50;75.50;;;;;;5105574;28;19923;-78
2022/06/07 14:18:51;;;;;;;;;;;20.50;75.60;;;;;;5108488;28;19935;-79
2022/06/07 14:21:16;;;;;;;;;;;20.40;75.70;;;;;;5111884;27;20229;-79
2022/06/07 14:23:42;;;;;;;;;;;20.40;75.90;;;;;;5112583;27;19911;-78
2022/06/07 14:26:09;;;;;;;;;;;20.40;75.90;;;;;;5112438;27;19922;-78
2022/06/07 14:28:34;;;;;;;;;;;20.30;76.10;;;;;;5128267;27;19919;-78
2022/06/07 14:31:00;;;;;;;;;;;20.30;76.30;;;;;;5105689;27;20457;-79
2022/06/07 14:33:26;;;;;;;;;;;20.30;76.30;;;;;;5105992;28;19912;-79
2022/06/07 14:35:52;;;;;;;;;;;20.30;76.50;;;;;;5093765;28;19924;-79
2022/06/07 14:38:19;;;;;;;;;;;20.30;76.40;;;;;;5101847;28;19911;-79
2022/06/07 14:40:45;;;;;;;;;;;20.30;76.50;;;;;;5103715;28;20542;-78
2022/06/07 14:43:12;;;;;;;;;;;20.30;76.50;;;;;;5107295;28;20006;-78
2022/06/07 14:45:44;;;;;;;;;;;20.40;76.60;;;;;;5107451;28;19911;-78
2022/06/07 14:48:17;;;;;;;;;;;20.30;76.90;;;;;;5105183;27;20076;-80
2022/06/07 14:50:42;;;;;;;;;;;20.30;77.10;;;;;;5109357;27;19916;-79